sensor_id;sensor_type;location;lat;lon;timestamp;pressure;altitude;pressure_sealevel;temperature;humidity
59487;BME280;45298;54.918;73.504;2023-12-04T00:00:23;100243.75;;;-16.05;84.14
59487;BME280;45298;54.918;73.504;2023-12-04T00:02:52;100264.16;;;-16.04;84.18
59487;BME280;45298;54.918;73.504;2023-12-04T00:05:21;100275.22;;;-16.03;85.35
59487;BME280;45298;54.918;73.504;2023-12-04T00:07:50;100283.41;;;-16.09;83.99
59487;BME280;45298;54.918;73.504;2023-12-04T00:10:21;100306.13;;;-16.12;84.72
59487;BME280;45298;54.918;73.504;2023-12-04T00:12:49;100299.13;;;-16.16;84.33
59487;BME280;45298;54.918;73.504;2023-12-04T00:15:21;100295.63;;;-16.18;84.32
59487;BME280;45298;54.918;73.504;2023-12-04T00:17:50;100306.59;;;-16.19;84.92
59487;BME280;45298;54.918;73.504;2023-12-04T00:20:19;100328.59;;;-16.20;85.22
59487;BME280;45298;54.918;73.504;2023-12-04T00:22:48;100299.75;;;-16.38;84.59
59487;BME280;45298;54.918;73.504;2023-12-04T00:25:17;100333.19;;;-16.29;83.88
59487;BME280;45298;54.918;73.504;2023-12-04T00:30:32;100348.59;;;-16.26;84.44
59487;BME280;45298;54.918;73.504;2023-12-04T00:33:02;100327.19;;;-16.48;85.23
59487;BME280;45298;54.918;73.504;2023-12-04T00:35:31;100365.44;;;-16.28;85.07
59487;BME280;45298;54.918;73.504;2023-12-04T00:37:59;100353.22;;;-16.52;84.93
59487;BME280;45298;54.918;73.504;2023-12-04T00:40:28;100399.06;;;-16.32;85.30
59487;BME280;45298;54.918;73.504;2023-12-04T00:42:57;100414.88;;;-16.38;84.59
59487;BME280;45298;54.918;73.504;2023-12-04T00:45:26;100405.97;;;-16.46;85.43
59487;BME280;45298;54.918;73.504;2023-12-04T00:47:56;100406.69;;;-16.49;84.86
59487;BME280;45298;54.918;73.504;2023-12-04T00:50:25;100416.00;;;-16.49;85.06
59487;BME280;45298;54.918;73.504;2023-12-04T00:52:54;100436.03;;;-16.54;84.64
59487;BME280;45298;54.918;73.504;2023-12-04T00:55:22;100449.53;;;-16.55;85.36
59487;BME280;45298;54.918;73.504;2023-12-04T00:57:51;100440.53;;;-16.65;85.06
59487;BME280;45298;54.918;73.504;2023-12-04T01:00:20;100454.59;;;-16.55;84.96
59487;BME280;45298;54.918;73.504;2023-12-04T01:02:49;100449.84;;;-16.65;85.07
59487;BME280;45298;54.918;73.504;2023-12-04T01:05:18;100464.28;;;-16.64;85.21
59487;BME280;45298;54.918;73.504;2023-12-04T01:07:47;100471.72;;;-16.67;84.81
59487;BME280;45298;54.918;73.504;2023-12-04T01:10:16;100467.00;;;-16.76;85.35
59487;BME280;45298;54.918;73.504;2023-12-04T01:12:45;100484.25;;;-16.71;84.74
59487;BME280;45298;54.918;73.504;2023-12-04T01:15:14;100478.75;;;-16.78;85.04
59487;BME280;45298;54.918;73.504;2023-12-04T01:17:44;100498.88;;;-16.81;83.77
59487;BME280;45298;54.918;73.504;2023-12-04T01:20:12;100511.31;;;-16.86;83.92
59487;BME280;45298;54.918;73.504;2023-12-04T01:22:41;100518.13;;;-16.85;85.17
59487;BME280;45298;54.918;73.504;2023-12-04T01:25:11;100535.13;;;-16.84;86.04
59487;BME280;45298;54.918;73.504;2023-12-04T01:27:40;100536.63;;;-16.88;86.41
59487;BME280;45298;54.918;73.504;2023-12-04T01:30:09;100534.75;;;-16.90;85.24
59487;BME280;45298;54.918;73.504;2023-12-04T01:32:39;100528.16;;;-17.03;85.43
59487;BME280;45298;54.918;73.504;2023-12-04T01:35:08;100527.81;;;-17.09;83.35
59487;BME280;45298;54.918;73.504;2023-12-04T01:37:38;100535.94;;;-17.15;84.32
59487;BME280;45298;54.918;73.504;2023-12-04T01:40:08;100542.41;;;-17.20;84.25
59487;BME280;45298;54.918;73.504;2023-12-04T01:42:37;100547.91;;;-17.27;84.07
59487;BME280;45298;54.918;73.504;2023-12-04T01:45:07;100569.50;;;-17.34;82.52
59487;BME280;45298;54.918;73.504;2023-12-04T01:47:36;100585.31;;;-17.38;83.26
59487;BME280;45298;54.918;73.504;2023-12-04T01:50:06;100584.28;;;-17.42;82.52
59487;BME280;45298;54.918;73.504;2023-12-04T01:52:36;100575.16;;;-17.53;84.28
59487;BME280;45298;54.918;73.504;2023-12-04T01:55:08;100589.56;;;-17.52;82.99
59487;BME280;45298;54.918;73.504;2023-12-04T01:57:41;100598.84;;;-17.53;83.10
59487;BME280;45298;54.918;73.504;2023-12-04T02:00:13;100505.28;;;-18.21;83.30
59487;BME280;45298;54.918;73.504;2023-12-04T02:02:43;100620.22;;;-17.63;83.24
59487;BME280;45298;54.918;73.504;2023-12-04T02:05:12;100640.50;;;-17.63;82.98
59487;BME280;45298;54.918;73.504;2023-12-04T02:07:44;100649.59;;;-17.66;83.99
59487;BME280;45298;54.918;73.504;2023-12-04T02:10:12;100674.25;;;-17.64;84.07
59487;BME280;45298;54.918;73.504;2023-12-04T02:12:42;100637.03;;;-17.78;83.55
59487;BME280;45298;54.918;73.504;2023-12-04T02:15:13;100658.84;;;-17.67;83.94
59487;BME280;45298;54.918;73.504;2023-12-04T02:17:45;100673.66;;;-17.73;83.29
59487;BME280;45298;54.918;73.504;2023-12-04T02:20:19;100680.97;;;-17.78;83.55
59487;BME280;45298;54.918;73.504;2023-12-04T02:22:49;100697.25;;;-17.74;83.75
59487;BME280;45298;54.918;73.504;2023-12-04T02:25:19;100681.97;;;-17.89;83.10
59487;BME280;45298;54.918;73.504;2023-12-04T02:28:05;100603.25;;;-18.47;83.54
59487;BME280;45298;54.918;73.504;2023-12-04T02:30:37;100715.19;;;-17.84;84.38
59487;BME280;45298;54.918;73.504;2023-12-04T02:33:08;100713.03;;;-17.91;83.71
59487;BME280;45298;54.918;73.504;2023-12-04T02:35:41;100699.25;;;-17.97;82.91
59487;BME280;45298;54.918;73.504;2023-12-04T02:38:11;100712.88;;;-17.95;82.88
59487;BME280;45298;54.918;73.504;2023-12-04T02:40:44;100727.38;;;-17.92;83.14
59487;BME280;45298;54.918;73.504;2023-12-04T02:43:13;100739.94;;;-17.94;84.01
59487;BME280;45298;54.918;73.504;2023-12-04T02:45:45;100745.66;;;-17.98;83.06
59487;BME280;45298;54.918;73.504;2023-12-04T02:48:15;100741.94;;;-18.03;83.57
59487;BME280;45298;54.918;73.504;2023-12-04T02:50:43;100744.63;;;-18.13;82.87
59487;BME280;45298;54.918;73.504;2023-12-04T02:53:14;100750.97;;;-18.20;83.87
59487;BME280;45298;54.918;73.504;2023-12-04T02:55:43;100708.28;;;-18.54;82.86
59487;BME280;45298;54.918;73.504;2023-12-04T02:58:11;100769.75;;;-18.30;82.54
59487;BME280;45298;54.918;73.504;2023-12-04T03:00:40;100793.50;;;-18.28;81.80
59487;BME280;45298;54.918;73.504;2023-12-04T03:03:10;100790.59;;;-18.34;82.06
59487;BME280;45298;54.918;73.504;2023-12-04T03:05:39;100830.50;;;-18.30;82.52
59487;BME280;45298;54.918;73.504;2023-12-04T03:08:08;100811.22;;;-18.41;81.64
59487;BME280;45298;54.918;73.504;2023-12-04T03:10:37;100827.16;;;-18.42;81.55
59487;BME280;45298;54.918;73.504;2023-12-04T03:13:08;100838.06;;;-18.43;82.26
59487;BME280;45298;54.918;73.504;2023-12-04T03:15:37;100832.59;;;-18.49;82.67
59487;BME280;45298;54.918;73.504;2023-12-04T03:18:06;100830.66;;;-18.53;83.01
59487;BME280;45298;54.918;73.504;2023-12-04T03:20:39;100832.75;;;-18.60;82.41
59487;BME280;45298;54.918;73.504;2023-12-04T03:23:07;100832.06;;;-18.57;82.41
59487;BME280;45298;54.918;73.504;2023-12-04T03:25:36;100849.53;;;-18.48;82.82
59487;BME280;45298;54.918;73.504;2023-12-04T03:28:05;100864.06;;;-18.46;83.06
59487;BME280;45298;54.918;73.504;2023-12-04T03:30:34;100858.66;;;-18.50;82.33
59487;BME280;45298;54.918;73.504;2023-12-04T03:33:03;100846.66;;;-18.66;81.88
59487;BME280;45298;54.918;73.504;2023-12-04T03:35:32;100880.59;;;-18.51;81.76
59487;BME280;45298;54.918;73.504;2023-12-04T03:38:01;100892.34;;;-18.51;82.23
59487;BME280;45298;54.918;73.504;2023-12-04T03:40:31;100902.38;;;-18.53;82.33
59487;BME280;45298;54.918;73.504;2023-12-04T03:43:00;100902.84;;;-18.59;82.11
59487;BME280;45298;54.918;73.504;2023-12-04T03:45:30;100920.00;;;-18.55;81.89
59487;BME280;45298;54.918;73.504;2023-12-04T03:47:59;100921.31;;;-18.60;82.31
59487;BME280;45298;54.918;73.504;2023-12-04T03:50:28;100933.66;;;-18.64;81.57
59487;BME280;45298;54.918;73.504;2023-12-04T03:52:57;100951.69;;;-18.60;81.54
59487;BME280;45298;54.918;73.504;2023-12-04T03:55:27;100948.94;;;-18.63;82.00
59487;BME280;45298;54.918;73.504;2023-12-04T03:57:57;100961.13;;;-18.57;81.28
59487;BME280;45298;54.918;73.504;2023-12-04T04:00:26;100944.56;;;-18.65;81.12
59487;BME280;45298;54.918;73.504;2023-12-04T04:02:55;100954.31;;;-18.58;81.73
59487;BME280;45298;54.918;73.504;2023-12-04T04:05:24;100966.41;;;-18.54;81.96
59487;BME280;45298;54.918;73.504;2023-12-04T04:07:53;100960.91;;;-18.60;82.53
59487;BME280;45298;54.918;73.504;2023-12-04T04:10:22;100974.25;;;-18.63;82.44
59487;BME280;45298;54.918;73.504;2023-12-04T04:12:51;100975.69;;;-18.66;82.31
59487;BME280;45298;54.918;73.504;2023-12-04T04:15:20;100967.22;;;-18.67;82.07
59487;BME280;45298;54.918;73.504;2023-12-04T04:17:49;100971.28;;;-18.69;82.43
59487;BME280;45298;54.918;73.504;2023-12-04T04:20:18;100974.25;;;-18.63;82.66
59487;BME280;45298;54.918;73.504;2023-12-04T04:22:50;100977.53;;;-18.64;81.93
59487;BME280;45298;54.918;73.504;2023-12-04T04:25:20;100991.97;;;-18.63;82.64
59487;BME280;45298;54.918;73.504;2023-12-04T04:27:51;101004.06;;;-18.59;82.38
59487;BME280;45298;54.918;73.504;2023-12-04T04:30:19;101017.59;;;-18.58;82.51
59487;BME280;45298;54.918;73.504;2023-12-04T04:32:48;101001.63;;;-18.69;82.41
59487;BME280;45298;54.918;73.504;2023-12-04T04:35:17;101016.19;;;-18.66;81.96
59487;BME280;45298;54.918;73.504;2023-12-04T04:37:46;101012.44;;;-18.72;82.21
59487;BME280;45298;54.918;73.504;2023-12-04T04:40:18;101018.16;;;-18.74;82.20
59487;BME280;45298;54.918;73.504;2023-12-04T04:42:47;101011.34;;;-18.75;81.82
59487;BME280;45298;54.918;73.504;2023-12-04T04:45:16;100997.69;;;-18.77;81.67
59487;BME280;45298;54.918;73.504;2023-12-04T04:47:45;101014.06;;;-18.72;81.28
59487;BME280;45298;54.918;73.504;2023-12-04T04:50:14;100985.94;;;-19.01;81.86
59487;BME280;45298;54.918;73.504;2023-12-04T04:52:43;101029.38;;;-18.82;81.86
59487;BME280;45298;54.918;73.504;2023-12-04T04:55:12;101033.44;;;-18.85;81.45
59487;BME280;45298;54.918;73.504;2023-12-04T04:58:00;100979.94;;;-19.14;80.91
59487;BME280;45298;54.918;73.504;2023-12-04T05:00:30;101025.00;;;-18.85;81.09
59487;BME280;45298;54.918;73.504;2023-12-04T05:02:59;101033.34;;;-18.74;81.72
59487;BME280;45298;54.918;73.504;2023-12-04T05:05:27;101053.25;;;-18.67;81.93
59487;BME280;45298;54.918;73.504;2023-12-04T05:07:56;101054.13;;;-18.66;81.59
59487;BME280;45298;54.918;73.504;2023-12-04T05:10:25;101048.31;;;-18.65;81.00
59487;BME280;45298;54.918;73.504;2023-12-04T05:12:54;101052.16;;;-18.59;81.60
59487;BME280;45298;54.918;73.504;2023-12-04T05:15:24;101056.66;;;-18.55;80.87
59487;BME280;45298;54.918;73.504;2023-12-04T05:17:53;101057.53;;;-18.54;81.29
59487;BME280;45298;54.918;73.504;2023-12-04T05:20:22;101060.38;;;-18.61;81.29
59487;BME280;45298;54.918;73.504;2023-12-04T05:22:52;101061.50;;;-18.58;80.96
59487;BME280;45298;54.918;73.504;2023-12-04T05:25:21;101082.16;;;-18.51;81.09
59487;BME280;45298;54.918;73.504;2023-12-04T05:27:52;101099.13;;;-18.50;81.35
59487;BME280;45298;54.918;73.504;2023-12-04T05:30:21;101090.97;;;-18.46;81.51
59487;BME280;45298;54.918;73.504;2023-12-04T05:32:49;101095.72;;;-18.39;81.57
59487;BME280;45298;54.918;73.504;2023-12-04T05:35:18;101113.44;;;-18.27;82.28
59487;BME280;45298;54.918;73.504;2023-12-04T05:37:47;101106.84;;;-18.25;nan
59487;BME280;45298;54.918;73.504;2023-12-04T05:40:16;101115.97;;;-18.15;81.19
59487;BME280;45298;54.918;73.504;2023-12-04T05:42:45;101120.44;;;-18.11;80.89
59487;BME280;45298;54.918;73.504;2023-12-04T05:45:14;101118.59;;;-18.02;81.50
59487;BME280;45298;54.918;73.504;2023-12-04T05:47:43;101124.91;;;-17.95;81.71
59487;BME280;45298;54.918;73.504;2023-12-04T05:50:13;101150.34;;;-17.82;81.63
59487;BME280;45298;54.918;73.504;2023-12-04T05:52:42;101155.84;;;-17.75;81.62
59487;BME280;45298;54.918;73.504;2023-12-04T05:55:11;101161.34;;;-17.69;81.97
59487;BME280;45298;54.918;73.504;2023-12-04T05:57:40;101173.66;;;-17.62;80.92
59487;BME280;45298;54.918;73.504;2023-12-04T06:00:09;101172.63;;;-17.52;81.85
59487;BME280;45298;54.918;73.504;2023-12-04T06:02:44;101187.19;;;-17.38;82.17
59487;BME280;45298;54.918;73.504;2023-12-04T06:05:13;101182.66;;;-17.42;80.75
59487;BME280;45298;54.918;73.504;2023-12-04T06:07:42;101200.03;;;-17.35;81.57
59487;BME280;45298;54.918;73.504;2023-12-04T06:10:14;101203.00;;;-17.28;80.76
59487;BME280;45298;54.918;73.504;2023-12-04T06:12:43;101196.59;;;-17.23;80.65
59487;BME280;45298;54.918;73.504;2023-12-04T06:15:12;101198.25;;;-17.24;80.50
59487;BME280;45298;54.918;73.504;2023-12-04T06:17:41;101199.56;;;-17.17;80.69
59487;BME280;45298;54.918;73.504;2023-12-04T06:20:10;101132.22;;;-17.63;80.61
59487;BME280;45298;54.918;73.504;2023-12-04T06:22:40;101209.00;;;-17.03;80.00
59487;BME280;45298;54.918;73.504;2023-12-04T06:25:09;101216.03;;;-16.98;80.75
59487;BME280;45298;54.918;73.504;2023-12-04T06:27:38;101223.03;;;-16.94;80.75
59487;BME280;45298;54.918;73.504;2023-12-04T06:30:07;101227.75;;;-16.87;81.33
59487;BME280;45298;54.918;73.504;2023-12-04T06:32:37;101234.53;;;-16.74;81.86
59487;BME280;45298;54.918;73.504;2023-12-04T06:35:06;101241.91;;;-16.65;80.78
59487;BME280;45298;54.918;73.504;2023-12-04T06:37:37;101237.69;;;-16.65;80.79
59487;BME280;45298;54.918;73.504;2023-12-04T06:40:08;101235.47;;;-16.60;81.11
59487;BME280;45298;54.918;73.504;2023-12-04T06:42:39;101235.88;;;-16.54;82.52
59487;BME280;45298;54.918;73.504;2023-12-04T06:45:09;101255.47;;;-16.39;80.76
59487;BME280;45298;54.918;73.504;2023-12-04T06:47:40;101224.84;;;-16.54;81.44
59487;BME280;45298;54.918;73.504;2023-12-04T06:50:12;101230.22;;;-16.50;79.56
59487;BME280;45298;54.918;73.504;2023-12-04T06:52:40;101263.00;;;-16.28;80.21
59487;BME280;45298;54.918;73.504;2023-12-04T06:55:11;101259.88;;;-16.23;80.80
59487;BME280;45298;54.918;73.504;2023-12-04T06:57:40;101239.97;;;-16.17;81.07
59487;BME280;45298;54.918;73.504;2023-12-04T07:00:10;101251.97;;;-16.15;80.63
59487;BME280;45298;54.918;73.504;2023-12-04T07:02:49;101233.19;;;-16.17;80.78
59487;BME280;45298;54.918;73.504;2023-12-04T07:05:19;101251.69;;;-16.06;80.95
59487;BME280;45298;54.918;73.504;2023-12-04T07:07:49;101255.50;;;-16.13;81.56
59487;BME280;45298;54.918;73.504;2023-12-04T07:10:18;101253.72;;;-16.14;81.18
59487;BME280;45298;54.918;73.504;2023-12-04T07:12:47;101247.22;;;-16.10;81.57
59487;BME280;45298;54.918;73.504;2023-12-04T07:15:19;101253.28;;;-16.08;80.57
59487;BME280;45298;54.918;73.504;2023-12-04T07:17:47;101259.72;;;-16.00;81.81
59487;BME280;45298;54.918;73.504;2023-12-04T07:20:16;101260.00;;;-15.95;80.71
59487;BME280;45298;54.918;73.504;2023-12-04T07:22:45;101275.25;;;-15.95;81.18
59487;BME280;45298;54.918;73.504;2023-12-04T07:25:14;101278.78;;;-15.93;81.84
59487;BME280;45298;54.918;73.504;2023-12-04T07:27:44;101279.56;;;-15.81;81.34
59487;BME280;45298;54.918;73.504;2023-12-04T07:30:14;101281.50;;;-15.76;80.96
59487;BME280;45298;54.918;73.504;2023-12-04T07:32:46;101275.84;;;-15.72;80.22
59487;BME280;45298;54.918;73.504;2023-12-04T07:35:17;101282.31;;;-15.64;80.67
59487;BME280;45298;54.918;73.504;2023-12-04T07:37:46;101234.22;;;-15.88;81.27
59487;BME280;45298;54.918;73.504;2023-12-04T07:40:15;101291.97;;;-15.45;81.56
59487;BME280;45298;54.918;73.504;2023-12-04T07:42:44;101290.13;;;-15.47;81.85
59487;BME280;45298;54.918;73.504;2023-12-04T07:45:13;101300.69;;;-15.41;82.01
59487;BME280;45298;54.918;73.504;2023-12-04T07:47:44;101307.16;;;-15.46;81.12
59487;BME280;45298;54.918;73.504;2023-12-04T07:50:13;101317.53;;;-15.43;81.19
59487;BME280;45298;54.918;73.504;2023-12-04T07:52:42;101318.59;;;-15.40;81.53
59487;BME280;45298;54.918;73.504;2023-12-04T07:55:11;101323.59;;;-15.41;81.52
59487;BME280;45298;54.918;73.504;2023-12-04T07:57:40;101329.47;;;-15.42;80.79
59487;BME280;45298;54.918;73.504;2023-12-04T08:00:09;101333.84;;;-15.40;81.94
59487;BME280;45298;54.918;73.504;2023-12-04T08:02:38;101338.25;;;-15.37;81.31
59487;BME280;45298;54.918;73.504;2023-12-04T08:05:07;101352.25;;;-15.30;81.28
59487;BME280;45298;54.918;73.504;2023-12-04T08:07:40;101343.81;;;-15.43;81.94
59487;BME280;45298;54.918;73.504;2023-12-04T08:10:09;101318.09;;;-15.61;81.83
59487;BME280;45298;54.918;73.504;2023-12-04T08:12:38;101357.31;;;-15.44;81.95
59487;BME280;45298;54.918;73.504;2023-12-04T08:15:08;101317.78;;;-15.66;81.63
59487;BME280;45298;54.918;73.504;2023-12-04T08:17:37;101338.81;;;-15.55;81.95
59487;BME280;45298;54.918;73.504;2023-12-04T08:20:06;101335.13;;;-15.60;81.33
59487;BME280;45298;54.918;73.504;2023-12-04T08:22:36;101339.03;;;-15.52;82.02
59487;BME280;45298;54.918;73.504;2023-12-04T08:25:05;101331.31;;;-15.53;82.13
59487;BME280;45298;54.918;73.504;2023-12-04T08:27:34;101321.22;;;-15.52;82.36
59487;BME280;45298;54.918;73.504;2023-12-04T08:30:04;101329.06;;;-15.48;82.25
59487;BME280;45298;54.918;73.504;2023-12-04T08:32:33;101342.75;;;-15.46;82.72
59487;BME280;45298;54.918;73.504;2023-12-04T08:35:03;101330.63;;;-15.51;81.61
59487;BME280;45298;54.918;73.504;2023-12-04T08:37:33;101332.75;;;-15.57;82.54
59487;BME280;45298;54.918;73.504;2023-12-04T08:40:05;101325.31;;;-15.54;81.69
59487;BME280;45298;54.918;73.504;2023-12-04T08:42:37;101337.88;;;-15.43;82.87
59487;BME280;45298;54.918;73.504;2023-12-04T08:45:08;101324.66;;;-15.51;81.63
59487;BME280;45298;54.918;73.504;2023-12-04T08:47:37;101320.25;;;-15.54;82.96
59487;BME280;45298;54.918;73.504;2023-12-04T08:50:07;101335.53;;;-15.40;82.22
59487;BME280;45298;54.918;73.504;2023-12-04T08:52:36;101337.25;;;-15.39;82.81
59487;BME280;45298;54.918;73.504;2023-12-04T08:55:06;101344.78;;;-15.27;82.47
59487;BME280;45298;54.918;73.504;2023-12-04T08:57:35;101342.16;;;-15.15;82.90
59487;BME280;45298;54.918;73.504;2023-12-04T09:00:05;101325.22;;;-15.15;82.25
59487;BME280;45298;54.918;73.504;2023-12-04T09:02:34;101326.88;;;-15.15;82.54
59487;BME280;45298;54.918;73.504;2023-12-04T09:05:05;101332.47;;;-15.21;82.34
59487;BME280;45298;54.918;73.504;2023-12-04T09:07:36;101343.72;;;-15.31;82.51
59487;BME280;45298;54.918;73.504;2023-12-04T09:10:08;101370.06;;;-15.30;82.22
59487;BME280;45298;54.918;73.504;2023-12-04T09:12:52;101375.13;;;-15.44;82.57
59487;BME280;45298;54.918;73.504;2023-12-04T09:15:21;101359.59;;;-15.62;81.62
59487;BME280;45298;54.918;73.504;2023-12-04T09:17:50;101367.22;;;-15.62;82.40
59487;BME280;45298;54.918;73.504;2023-12-04T09:20:19;101360.56;;;-15.60;83.39
59487;BME280;45298;54.918;73.504;2023-12-04T09:22:48;101360.72;;;-15.57;83.27
59487;BME280;45298;54.918;73.504;2023-12-04T09:25:27;101370.63;;;-15.61;82.48
59487;BME280;45298;54.918;73.504;2023-12-04T09:27:56;101360.66;;;-15.58;83.73
59487;BME280;45298;54.918;73.504;2023-12-04T09:30:25;101356.06;;;-15.64;82.53
59487;BME280;45298;54.918;73.504;2023-12-04T09:32:55;101362.78;;;-15.65;83.85
59487;BME280;45298;54.918;73.504;2023-12-04T09:35:23;101370.22;;;-15.68;83.92
59487;BME280;45298;54.918;73.504;2023-12-04T09:37:53;101369.53;;;-15.65;83.38
59487;BME280;45298;54.918;73.504;2023-12-04T09:40:23;101363.69;;;-15.64;83.56
59487;BME280;45298;54.918;73.504;2023-12-04T09:42:52;101360.53;;;-15.73;83.15
59487;BME280;45298;54.918;73.504;2023-12-04T09:45:24;101370.50;;;-15.76;82.96
59487;BME280;45298;54.918;73.504;2023-12-04T09:47:54;101368.84;;;-15.76;84.05
59487;BME280;45298;54.918;73.504;2023-12-04T09:50:24;101347.03;;;-15.99;82.99
59487;BME280;45298;54.918;73.504;2023-12-04T09:52:53;101384.00;;;-15.91;83.69
59487;BME280;45298;54.918;73.504;2023-12-04T09:55:23;101357.66;;;-16.05;83.92
59487;BME280;45298;54.918;73.504;2023-12-04T09:57:54;101377.81;;;-16.08;83.55
59487;BME280;45298;54.918;73.504;2023-12-04T10:00:23;101363.38;;;-16.21;83.90
59487;BME280;45298;54.918;73.504;2023-12-04T10:02:53;101377.84;;;-16.20;83.04
59487;BME280;45298;54.918;73.504;2023-12-04T10:05:22;101367.75;;;-16.32;83.52
59487;BME280;45298;54.918;73.504;2023-12-04T10:07:53;101366.63;;;-16.35;83.93
59487;BME280;45298;54.918;73.504;2023-12-04T10:10:21;101369.94;;;-16.36;83.39
59487;BME280;45298;54.918;73.504;2023-12-04T10:12:51;101360.72;;;-16.48;84.33
59487;BME280;45298;54.918;73.504;2023-12-04T10:15:20;101356.97;;;-16.53;82.68
59487;BME280;45298;54.918;73.504;2023-12-04T10:17:49;101361.78;;;-16.69;83.56
59487;BME280;45298;54.918;73.504;2023-12-04T10:20:17;101402.47;;;-16.56;83.28
59487;BME280;45298;54.918;73.504;2023-12-04T10:23:01;101403.09;;;-16.72;83.17
59487;BME280;45298;54.918;73.504;2023-12-04T10:25:30;101415.47;;;-16.77;82.47
59487;BME280;45298;54.918;73.504;2023-12-04T10:28:08;101417.25;;;-16.88;83.05
59487;BME280;45298;54.918;73.504;2023-12-04T10:30:38;101401.47;;;-16.95;83.79
59487;BME280;45298;54.918;73.504;2023-12-04T10:33:08;101400.50;;;-16.97;83.30
59487;BME280;45298;54.918;73.504;2023-12-04T10:35:37;101410.66;;;-16.97;83.70
59487;BME280;45298;54.918;73.504;2023-12-04T10:38:07;101406.22;;;-17.00;83.84
59487;BME280;45298;54.918;73.504;2023-12-04T10:40:37;101402.28;;;-17.08;84.33
59487;BME280;45298;54.918;73.504;2023-12-04T10:43:10;101397.97;;;-17.09;83.77
59487;BME280;45298;54.918;73.504;2023-12-04T10:45:40;101400.53;;;-17.21;83.05
59487;BME280;45298;54.918;73.504;2023-12-04T10:48:11;101398.53;;;-17.25;83.09
59487;BME280;45298;54.918;73.504;2023-12-04T10:50:45;101410.00;;;-17.30;84.36
59487;BME280;45298;54.918;73.504;2023-12-04T10:53:16;101405.59;;;-17.33;82.81
59487;BME280;45298;54.918;73.504;2023-12-04T10:55:45;101390.59;;;-17.42;82.82
59487;BME280;45298;54.918;73.504;2023-12-04T10:58:17;101414.06;;;-17.44;83.42
59487;BME280;45298;54.918;73.504;2023-12-04T11:00:48;101414.84;;;-17.45;83.31
59487;BME280;45298;54.918;73.504;2023-12-04T11:03:21;101412.19;;;-17.47;83.67
59487;BME280;45298;54.918;73.504;2023-12-04T11:06:00;101416.59;;;-17.56;83.93
59487;BME280;45298;54.918;73.504;2023-12-04T11:08:29;101389.00;;;-17.75;83.75
59487;BME280;45298;54.918;73.504;2023-12-04T11:11:13;101362.09;;;-17.85;84.46
59487;BME280;45298;54.918;73.504;2023-12-04T11:13:49;101419.13;;;-17.56;84.18
59487;BME280;45298;54.918;73.504;2023-12-04T11:16:26;101416.16;;;-17.63;83.82
59487;BME280;45298;54.918;73.504;2023-12-04T11:21:40;101409.75;;;-17.69;83.43
59487;BME280;45298;54.918;73.504;2023-12-04T11:24:10;101418.97;;;-17.70;83.47
59487;BME280;45298;54.918;73.504;2023-12-04T11:26:43;101405.75;;;-17.78;83.63
59487;BME280;45298;54.918;73.504;2023-12-04T11:29:12;101400.22;;;-17.84;83.36
59487;BME280;45298;54.918;73.504;2023-12-04T11:31:42;101373.91;;;-17.98;83.88
59487;BME280;45298;54.918;73.504;2023-12-04T11:34:12;101404.66;;;-17.81;83.74
59487;BME280;45298;54.918;73.504;2023-12-04T11:36:41;101407.72;;;-17.85;83.68
59487;BME280;45298;54.918;73.504;2023-12-04T11:39:10;101409.78;;;-17.91;83.39
59487;BME280;45298;54.918;73.504;2023-12-04T11:41:42;101393.81;;;-17.90;83.69
59487;BME280;45298;54.918;73.504;2023-12-04T11:44:12;101379.81;;;-17.97;83.51
59487;BME280;45298;54.918;73.504;2023-12-04T11:47:02;101401.78;;;-17.98;83.18
59487;BME280;45298;54.918;73.504;2023-12-04T11:49:33;101408.25;;;-18.01;83.70
59487;BME280;45298;54.918;73.504;2023-12-04T11:52:04;101387.38;;;-18.21;83.07
59487;BME280;45298;54.918;73.504;2023-12-04T11:54:59;101409.44;;;-18.08;83.24
59487;BME280;45298;54.918;73.504;2023-12-04T11:57:32;101354.47;;;-18.43;83.42
59487;BME280;45298;54.918;73.504;2023-12-04T12:00:10;101400.59;;;-18.13;83.61
59487;BME280;45298;54.918;73.504;2023-12-04T12:05:41;101413.44;;;-18.22;83.64
59487;BME280;45298;54.918;73.504;2023-12-04T12:08:11;101410.06;;;-18.22;83.52
59487;BME280;45298;54.918;73.504;2023-12-04T12:10:40;101400.44;;;-18.27;83.81
59487;BME280;45298;54.918;73.504;2023-12-04T12:13:10;101391.75;;;-18.30;83.96
59487;BME280;45298;54.918;73.504;2023-12-04T12:15:40;101391.44;;;-18.23;83.53
59487;BME280;45298;54.918;73.504;2023-12-04T12:18:09;101387.16;;;-18.24;83.33
59487;BME280;45298;54.918;73.504;2023-12-04T12:20:39;101407.75;;;-18.19;83.99
59487;BME280;45298;54.918;73.504;2023-12-04T12:23:08;101399.44;;;-18.29;83.41
59487;BME280;45298;54.918;73.504;2023-12-04T12:25:38;101410.53;;;-18.16;84.01
59487;BME280;45298;54.918;73.504;2023-12-04T12:28:06;101390.66;;;-18.22;83.93
59487;BME280;45298;54.918;73.504;2023-12-04T12:30:36;101386.25;;;-18.25;83.59
59487;BME280;45298;54.918;73.504;2023-12-04T12:33:05;101405.22;;;-18.19;83.92
59487;BME280;45298;54.918;73.504;2023-12-04T12:35:34;101390.84;;;-18.31;83.92
59487;BME280;45298;54.918;73.504;2023-12-04T12:38:03;101411.81;;;-18.21;83.95
59487;BME280;45298;54.918;73.504;2023-12-04T12:40:33;101403.75;;;-18.28;83.73
59487;BME280;45298;54.918;73.504;2023-12-04T12:43:08;101397.44;;;-18.33;83.50
59487;BME280;45298;54.918;73.504;2023-12-04T12:45:44;101397.81;;;-18.28;83.69
59487;BME280;45298;54.918;73.504;2023-12-04T12:48:16;101370.91;;;-18.38;83.54
59487;BME280;45298;54.918;73.504;2023-12-04T12:50:48;101349.66;;;-18.40;83.13
59487;BME280;45298;54.918;73.504;2023-12-04T12:53:18;101345.03;;;-18.46;83.49